Sirius — JD2507 — position and weather

sailwx.info

Track history (hours):
 
Tides and Currents Weather Stations Pressure Air Temp Water Temp Dewpoint Dewpoint Depression Visibility Wind Speed Wind Dir Waves Ship Positions

Sirius

Last reported at 2018-Jun-20 19:38 UTC. Time now 2018-Jun-20 22:42 UTC.
Position N 34°41' E 134°47'.

Length 38 m; draft 2 m.

Type: Other ship. MMSI: 431000347.

Date/timePositionNaut miles runAvg speedWind from/ knotsBaromVisibWave heightAir tempDewpointWater temp
2018-Jun-20 19:38N 34°41' E 134°47'416.2
2018-Jun-20 19:23N 34°39' E 134°51'715.4
2018-Jun-20 18:57N 34°37' E 134°59'612.7
2018-Jun-20 18:31N 34°36' E 135°05'4 8.1
2018-Jun-20 18:00N 34°35' E 135°10'1 1.1
2018-Jun-20 17:30N 34°35' E 135°11'611.6
2018-Jun-20 17:00N 34°40' E 135°12'0 0.0
2018-Jun-20 03:53N 34°40' E 135°12'512.8
2018-Jun-20 03:30N 34°38' E 135°07'816.2
2018-Jun-20 03:00N 34°38' E 134°57'14 8.1
2018-Jun-20 01:15N 34°43' E 134°41'412.1
2018-Jun-20 00:57N 34°39' E 134°42'712.9
2018-Jun-20 00:24N 34°33' E 134°47'614.3
2018-Jun-19 23:58N 34°36' E 134°54'611.7
2018-Jun-19 23:27N 34°37' E 135°01'511.7
2018-Jun-19 22:59N 34°35' E 135°07'3 6.1
2018-Jun-19 22:30N 34°34' E 135°10'3 6.3
2018-Jun-19 21:59N 34°32' E 135°08'510.8
2018-Jun-19 21:29N 34°27' E 135°05'5 9.8
2018-Jun-19 21:00N 34°23' E 135°02'5 9.9
2018-Jun-19 20:30N 34°18' E 134°59'511.0
2018-Jun-19 20:00N 34°13' E 134°60'1 1.7
2018-Jun-19 19:30N 34°13' E 134°59'612.0
2018-Jun-19 19:00N 34°19' E 134°57'3 6.5
2018-Jun-19 18:30N 34°21' E 134°54'0 0.0
2018-Jun-18 09:51N 34°21' E 134°54'412.9
2018-Jun-18 09:31N 34°18' E 134°58'2 4.2
2018-Jun-18 09:01N 34°20' E 134°59'715.0
2018-Jun-18 08:31N 34°27' E 135°03'611.3
2018-Jun-18 08:00N 34°32' E 135°06'510.8
2018-Jun-18 07:29N 34°36' E 135°01'714.4
2018-Jun-18 07:00N 34°35' E 134°53'814.2
2018-Jun-18 06:28N 34°34' E 134°44'6 0.2
2018-Jun-17 01:37N 34°40' E 134°41'511.6
2018-Jun-17 01:10N 34°35' E 134°42'312.1
2018-Jun-17 00:57N 34°33' E 134°45'715.2
2018-Jun-17 00:30N 34°35' E 134°53'712.7
2018-Jun-16 23:58N 34°37' E 135°01'510.4
2018-Jun-16 23:30N 34°35' E 135°06'2 3.5
2018-Jun-16 23:00N 34°34' E 135°08'4 7.5
2018-Jun-16 22:29N 34°30' E 135°06'5 9.2
2018-Jun-16 21:59N 34°26' E 135°04'613.4
2018-Jun-16 21:30N 34°20' E 135°00'611.7
2018-Jun-16 21:00N 34°14' E 134°59'3 6.2
2018-Jun-16 20:30N 34°11' E 134°59'510.4
2018-Jun-16 20:01N 34°16' E 134°58'713.7
2018-Jun-16 19:30N 34°23' E 135°01'714.2
2018-Jun-16 19:00N 34°29' E 135°05'713.2
2018-Jun-16 18:30N 34°35' E 135°09'611.7
2018-Jun-16 18:00N 34°40' E 135°12'0 0.0
2018-Jun-14 19:06N 34°40' E 135°12'1 9.3
2018-Jun-14 19:00N 34°40' E 135°12'816.8
2018-Jun-14 18:30N 34°36' E 135°02'1 2.1
2018-Jun-14 17:52N 34°37' E 135°01'3 9.7
2018-Jun-14 17:30N 34°36' E 135°05'1 2.7
2018-Jun-14 17:00N 34°36' E 135°06'3 0.8
2018-Jun-14 12:40N 34°38' E 135°03'311.2
2018-Jun-14 12:24N 34°38' E 134°60'1 1.2
2018-Jun-14 12:00N 34°38' E 134°59'611.7
2018-Jun-14 11:30N 34°36' E 135°06'1 1.7
2018-Jun-14 11:01N 34°36' E 135°06'2 0.3
2018-Jun-14 03:56N 34°37' E 135°03'2 1.7
2018-Jun-14 02:47N 34°37' E 135°01'310.7
2018-Jun-14 02:30N 34°36' E 135°04'612.3
2018-Jun-14 02:00N 34°39' E 135°11'2 3.4
2018-Jun-14 01:30N 34°40' E 135°12'0 0.0
2018-Jun-12 23:49N 34°40' E 135°12'412.2
2018-Jun-12 23:30N 34°38' E 135°09'6 7.1
2018-Jun-12 22:37N 34°37' E 135°01'111.7
2018-Jun-12 22:30N 34°37' E 135°02'4 8.3
2018-Jun-12 22:00N 34°35' E 135°07'510.7
2018-Jun-12 21:30N 34°39' E 135°11'2 4.1
2018-Jun-12 21:00N 34°40' E 135°12'0 0.0
2018-Jun-11 19:44N 34°40' E 135°12'2 9.3
2018-Jun-11 19:30N 34°39' E 135°10'4 8.0
2018-Jun-11 19:00N 34°37' E 135°06'815.5
2018-Jun-11 18:29N 34°37' E 134°56'4 9.2
2018-Jun-11 18:00N 34°37' E 135°01'4 8.7
2018-Jun-11 17:30N 34°36' E 135°06'3 5.9
2018-Jun-11 17:00N 34°36' E 135°10'5 9.4
2018-Jun-11 16:30N 34°40' E 135°12'  
Track history (hours):
 
Tides and Currents Weather Stations Pressure Air Temp Water Temp Dewpoint Dewpoint Depression Visibility Wind Speed Wind Dir Waves Ship Positions

Sirius

Last reported at 2018-Jun-20 19:38 UTC. Time now 2018-Jun-20 22:42 UTC.
Position N 34°41' E 134°47'.

Length 38 m; draft 2 m.

Type: Other ship. MMSI: 431000347.

Date/timePositionNaut miles runAvg speedWind from/ knotsBaromVisibWave heightAir tempDewpointWater temp
2018-Jun-20 19:38N 34°41' E 134°47'416.2
2018-Jun-20 19:23N 34°39' E 134°51'715.4
2018-Jun-20 18:57N 34°37' E 134°59'612.7
2018-Jun-20 18:31N 34°36' E 135°05'4 8.1
2018-Jun-20 18:00N 34°35' E 135°10'1 1.1
2018-Jun-20 17:30N 34°35' E 135°11'611.6
2018-Jun-20 17:00N 34°40' E 135°12'0 0.0
2018-Jun-20 03:53N 34°40' E 135°12'512.8
2018-Jun-20 03:30N 34°38' E 135°07'816.2
2018-Jun-20 03:00N 34°38' E 134°57'14 8.1
2018-Jun-20 01:15N 34°43' E 134°41'412.1
2018-Jun-20 00:57N 34°39' E 134°42'712.9
2018-Jun-20 00:24N 34°33' E 134°47'614.3
2018-Jun-19 23:58N 34°36' E 134°54'611.7
2018-Jun-19 23:27N 34°37' E 135°01'511.7
2018-Jun-19 22:59N 34°35' E 135°07'3 6.1
2018-Jun-19 22:30N 34°34' E 135°10'3 6.3
2018-Jun-19 21:59N 34°32' E 135°08'510.8
2018-Jun-19 21:29N 34°27' E 135°05'5 9.8
2018-Jun-19 21:00N 34°23' E 135°02'5 9.9
2018-Jun-19 20:30N 34°18' E 134°59'511.0
2018-Jun-19 20:00N 34°13' E 134°60'1 1.7
2018-Jun-19 19:30N 34°13' E 134°59'612.0
2018-Jun-19 19:00N 34°19' E 134°57'3 6.5
2018-Jun-19 18:30N 34°21' E 134°54'0 0.0
2018-Jun-18 09:51N 34°21' E 134°54'412.9
2018-Jun-18 09:31N 34°18' E 134°58'2 4.2
2018-Jun-18 09:01N 34°20' E 134°59'715.0
2018-Jun-18 08:31N 34°27' E 135°03'611.3
2018-Jun-18 08:00N 34°32' E 135°06'510.8
2018-Jun-18 07:29N 34°36' E 135°01'714.4
2018-Jun-18 07:00N 34°35' E 134°53'814.2
2018-Jun-18 06:28N 34°34' E 134°44'6 0.2
2018-Jun-17 01:37N 34°40' E 134°41'511.6
2018-Jun-17 01:10N 34°35' E 134°42'312.1
2018-Jun-17 00:57N 34°33' E 134°45'715.2
2018-Jun-17 00:30N 34°35' E 134°53'712.7
2018-Jun-16 23:58N 34°37' E 135°01'510.4
2018-Jun-16 23:30N 34°35' E 135°06'2 3.5
2018-Jun-16 23:00N 34°34' E 135°08'4 7.5
2018-Jun-16 22:29N 34°30' E 135°06'5 9.2
2018-Jun-16 21:59N 34°26' E 135°04'613.4
2018-Jun-16 21:30N 34°20' E 135°00'611.7
2018-Jun-16 21:00N 34°14' E 134°59'3 6.2
2018-Jun-16 20:30N 34°11' E 134°59'510.4
2018-Jun-16 20:01N 34°16' E 134°58'713.7
2018-Jun-16 19:30N 34°23' E 135°01'714.2
2018-Jun-16 19:00N 34°29' E 135°05'713.2
2018-Jun-16 18:30N 34°35' E 135°09'611.7
2018-Jun-16 18:00N 34°40' E 135°12'0 0.0
2018-Jun-14 19:06N 34°40' E 135°12'1 9.3
2018-Jun-14 19:00N 34°40' E 135°12'816.8
2018-Jun-14 18:30N 34°36' E 135°02'1 2.1
2018-Jun-14 17:52N 34°37' E 135°01'3 9.7
2018-Jun-14 17:30N 34°36' E 135°05'1 2.7
2018-Jun-14 17:00N 34°36' E 135°06'3 0.8
2018-Jun-14 12:40N 34°38' E 135°03'311.2
2018-Jun-14 12:24N 34°38' E 134°60'1 1.2
2018-Jun-14 12:00N 34°38' E 134°59'611.7
2018-Jun-14 11:30N 34°36' E 135°06'1 1.7
2018-Jun-14 11:01N 34°36' E 135°06'2 0.3
2018-Jun-14 03:56N 34°37' E 135°03'2 1.7
2018-Jun-14 02:47N 34°37' E 135°01'310.7
2018-Jun-14 02:30N 34°36' E 135°04'612.3
2018-Jun-14 02:00N 34°39' E 135°11'2 3.4
2018-Jun-14 01:30N 34°40' E 135°12'0 0.0
2018-Jun-12 23:49N 34°40' E 135°12'412.2
2018-Jun-12 23:30N 34°38' E 135°09'6 7.1
2018-Jun-12 22:37N 34°37' E 135°01'111.7
2018-Jun-12 22:30N 34°37' E 135°02'4 8.3
2018-Jun-12 22:00N 34°35' E 135°07'510.7
2018-Jun-12 21:30N 34°39' E 135°11'2 4.1
2018-Jun-12 21:00N 34°40' E 135°12'0 0.0
2018-Jun-11 19:44N 34°40' E 135°12'2 9.3
2018-Jun-11 19:30N 34°39' E 135°10'4 8.0
2018-Jun-11 19:00N 34°37' E 135°06'815.5
2018-Jun-11 18:29N 34°37' E 134°56'4 9.2
2018-Jun-11 18:00N 34°37' E 135°01'4 8.7
2018-Jun-11 17:30N 34°36' E 135°06'3 5.9
2018-Jun-11 17:00N 34°36' E 135°10'5 9.4
2018-Jun-11 16:30N 34°40' E 135°12'  

Dump ship's entire track history